createdAt,value
2018-03-07T00:02:04.835Z,89.18
2018-03-07T00:04:32.474Z,88.77
2018-03-07T00:07:00.067Z,88.12
2018-03-07T00:09:27.778Z,88.21
2018-03-07T00:11:55.385Z,88.21
2018-03-07T00:14:23.010Z,88.36
2018-03-07T00:16:50.639Z,88.69
2018-03-07T00:19:18.278Z,88.88
2018-03-07T00:21:45.878Z,89.06
2018-03-07T00:24:13.513Z,88.85
2018-03-07T00:26:41.178Z,88.99
2018-03-07T00:29:08.793Z,89.26
2018-03-07T00:31:36.580Z,89.45
2018-03-07T00:34:04.239Z,90.50
2018-03-07T00:36:31.962Z,91.47
2018-03-07T00:38:59.589Z,92.18
2018-03-07T00:41:27.192Z,92.42
2018-03-07T00:43:54.812Z,92.14
2018-03-07T00:46:22.480Z,91.73
2018-03-07T00:48:50.117Z,91.48
2018-03-07T00:51:17.722Z,91.16
2018-03-07T00:53:45.346Z,90.75
2018-03-07T00:56:12.958Z,90.84
2018-03-07T00:58:40.582Z,91.00
2018-03-07T01:01:08.166Z,90.77
2018-03-07T01:03:35.898Z,90.55
2018-03-07T01:06:03.503Z,90.46
2018-03-07T01:08:31.123Z,90.32
2018-03-07T01:10:58.722Z,90.14
2018-03-07T01:13:26.342Z,89.71
2018-03-07T01:15:53.935Z,89.60
2018-03-07T01:18:21.682Z,89.90
2018-03-07T01:20:49.295Z,89.66
2018-03-07T01:23:16.925Z,89.36
2018-03-07T01:25:44.523Z,89.19
2018-03-07T01:28:12.250Z,88.96
2018-03-07T01:30:39.847Z,88.59
2018-03-07T01:33:07.455Z,88.42
2018-03-07T01:35:35.107Z,88.07
2018-03-07T01:38:02.734Z,87.34
2018-03-07T01:40:30.339Z,87.40
2018-03-07T01:42:57.978Z,87.74
2018-03-07T01:45:25.606Z,87.82
2018-03-07T01:47:53.333Z,88.26
2018-03-07T01:50:20.930Z,88.88
2018-03-07T01:52:48.599Z,89.20
2018-03-07T01:55:16.204Z,89.14
2018-03-07T01:57:44.003Z,88.85
2018-03-07T02:00:11.606Z,88.48
2018-03-07T02:02:39.239Z,88.48
2018-03-07T02:05:06.838Z,88.66
2018-03-07T02:07:34.478Z,88.71
2018-03-07T02:10:02.102Z,88.59
2018-03-07T02:12:29.726Z,88.48
2018-03-07T02:14:57.335Z,88.62
2018-03-07T02:17:24.950Z,88.69
2018-03-07T02:19:52.549Z,88.86
2018-03-07T02:22:20.370Z,88.86
2018-03-07T02:24:47.983Z,88.22
2018-03-07T02:27:15.622Z,87.46
2018-03-07T02:29:43.245Z,86.64
2018-03-07T02:32:10.888Z,86.17
2018-03-07T02:34:38.575Z,86.56
2018-03-07T02:37:06.200Z,86.51
2018-03-07T02:39:33.835Z,84.70
2018-03-07T02:42:01.633Z,85.65
2018-03-07T02:44:29.238Z,87.09
2018-03-07T02:46:56.870Z,87.67
2018-03-07T02:49:24.594Z,88.11
2018-03-07T02:51:52.221Z,88.72
2018-03-07T02:54:19.816Z,89.36
2018-03-07T02:56:47.438Z,89.92
2018-03-07T02:59:15.035Z,89.68
2018-03-07T03:01:42.662Z,89.77
2018-03-07T03:04:10.265Z,89.78
2018-03-07T03:06:37.935Z,89.24
2018-03-07T03:09:05.527Z,89.08
2018-03-07T03:11:33.186Z,89.08
2018-03-07T03:14:00.788Z,88.96
2018-03-07T03:16:28.422Z,88.74
2018-03-07T03:18:56.031Z,88.21
2018-03-07T03:21:23.629Z,88.19
2018-03-07T03:23:51.285Z,88.33
2018-03-07T03:26:18.864Z,88.42
2018-03-07T03:28:46.488Z,88.44
2018-03-07T03:31:14.098Z,88.33
2018-03-07T03:33:41.851Z,88.02
2018-03-07T03:36:09.498Z,87.76
2018-03-07T03:38:37.159Z,87.79
2018-03-07T03:41:04.754Z,87.73
2018-03-07T03:43:32.397Z,87.59
2018-03-07T03:46:00.021Z,87.59
2018-03-07T03:48:27.639Z,87.76
2018-03-07T03:50:55.270Z,87.79
2018-03-07T03:53:22.858Z,87.68
2018-03-07T03:55:50.495Z,87.71
2018-03-07T03:58:18.078Z,88.03
2018-03-07T04:00:45.778Z,88.20
2018-03-07T04:03:13.374Z,88.18
2018-03-07T04:05:41.020Z,88.26
2018-03-07T04:08:08.619Z,88.31
2018-03-07T04:10:36.260Z,88.50
2018-03-07T04:13:03.844Z,88.99
2018-03-07T04:15:31.474Z,89.34
2018-03-07T04:17:59.070Z,89.56
2018-03-07T04:20:26.706Z,90.72
2018-03-07T04:22:54.297Z,92.71
2018-03-07T04:25:21.893Z,93.79
2018-03-07T04:27:49.518Z,94.47
2018-03-07T04:30:17.118Z,94.71
2018-03-07T04:32:45.550Z,94.99
2018-03-07T04:35:13.186Z,94.96
2018-03-07T04:37:40.814Z,94.78
2018-03-07T04:40:08.400Z,94.62
2018-03-07T04:42:36.049Z,95.11
2018-03-07T04:45:03.621Z,95.67
2018-03-07T04:47:31.242Z,95.93
2018-03-07T04:49:58.831Z,95.97
2018-03-07T04:52:26.458Z,95.70
2018-03-07T04:54:54.061Z,95.14
2018-03-07T04:57:21.758Z,94.69
2018-03-07T04:59:49.346Z,95.52
2018-03-07T05:02:16.970Z,96.42
2018-03-07T05:04:44.571Z,97.25
2018-03-07T05:07:12.194Z,97.46
2018-03-07T05:09:39.795Z,97.41
2018-03-07T05:12:07.414Z,97.83
2018-03-07T05:14:35.014Z,97.85
2018-03-07T05:17:02.594Z,97.71
2018-03-07T05:19:30.225Z,97.16
2018-03-07T05:21:57.817Z,96.26
2018-03-07T05:24:25.472Z,96.50
2018-03-07T05:26:53.062Z,96.56
2018-03-07T05:29:20.711Z,96.13
2018-03-07T05:31:48.360Z,95.48
2018-03-07T05:34:15.989Z,95.34
2018-03-07T05:36:43.626Z,95.41
2018-03-07T05:39:11.250Z,95.95
2018-03-07T05:41:38.874Z,96.14
2018-03-07T05:44:06.507Z,95.65
2018-03-07T05:46:34.109Z,94.89
2018-03-07T05:49:01.821Z,94.54
2018-03-07T05:51:29.409Z,93.96
2018-03-07T05:53:57.085Z,93.58
2018-03-07T05:56:25.272Z,93.97
2018-03-07T05:58:52.920Z,94.18
2018-03-07T06:01:20.529Z,94.07
2018-03-07T06:03:48.166Z,93.44
2018-03-07T06:06:15.762Z,93.47
2018-03-07T06:08:43.420Z,93.57
2018-03-07T06:11:11.038Z,93.57
2018-03-07T06:13:38.638Z,93.06
2018-03-07T06:16:06.254Z,92.79
2018-03-07T06:18:33.871Z,92.35
2018-03-07T06:21:01.464Z,92.21
2018-03-07T06:23:29.091Z,92.62
2018-03-07T06:25:56.687Z,92.48
2018-03-07T06:28:24.339Z,92.26
2018-03-07T06:30:51.922Z,92.51
2018-03-07T06:33:19.545Z,92.56
2018-03-07T06:35:47.147Z,92.69
2018-03-07T06:38:14.737Z,92.75
2018-03-07T06:40:42.358Z,92.78
2018-03-07T06:43:10.050Z,93.30
2018-03-07T06:45:37.641Z,93.67
2018-03-07T06:48:05.291Z,93.94
2018-03-07T06:50:32.843Z,94.45
2018-03-07T06:53:00.435Z,95.15
2018-03-07T06:55:28.070Z,95.50
2018-03-07T06:57:55.682Z,95.51
2018-03-07T07:00:23.278Z,95.49
2018-03-07T07:02:50.910Z,96.62
2018-03-07T07:05:18.523Z,97.52
2018-03-07T07:07:46.169Z,97.79
2018-03-07T07:10:13.834Z,97.68
2018-03-07T07:12:41.472Z,97.23
2018-03-07T07:15:09.089Z,96.80
2018-03-07T07:17:36.759Z,96.17
2018-03-07T07:20:04.394Z,96.20
2018-03-07T07:22:32.133Z,96.30
2018-03-07T07:24:59.775Z,96.65
2018-03-07T07:27:27.420Z,96.18
2018-03-07T07:29:55.012Z,95.78
2018-03-07T07:32:22.626Z,95.80
2018-03-07T07:34:50.482Z,95.65
2018-03-07T07:37:18.086Z,95.96
2018-03-07T07:39:45.711Z,96.01
2018-03-07T07:42:13.298Z,96.64
2018-03-07T07:44:40.921Z,96.19
2018-03-07T07:47:08.508Z,96.35
2018-03-07T07:49:36.138Z,96.38
2018-03-07T07:52:03.734Z,96.49
2018-03-07T07:54:31.412Z,95.45
2018-03-07T07:56:58.990Z,94.35
2018-03-07T07:59:26.634Z,93.95
2018-03-07T08:01:54.435Z,94.12
2018-03-07T08:04:22.080Z,94.20
2018-03-07T08:06:49.657Z,93.57
2018-03-07T08:09:17.287Z,93.26
2018-03-07T08:11:44.870Z,92.92
2018-03-07T08:14:12.654Z,93.01
2018-03-07T08:16:40.243Z,92.78
2018-03-07T08:19:07.910Z,92.82
2018-03-07T08:21:35.507Z,92.43
2018-03-07T08:24:03.128Z,92.42
2018-03-07T08:26:30.816Z,92.54
2018-03-07T08:28:58.434Z,91.57
2018-03-07T08:31:26.055Z,91.13
2018-03-07T08:33:53.703Z,89.93
2018-03-07T08:36:21.335Z,89.02
2018-03-07T08:38:49.071Z,88.92
2018-03-07T08:41:16.654Z,88.54
2018-03-07T08:43:44.282Z,89.46
2018-03-07T08:46:11.879Z,88.88
2018-03-07T08:48:39.514Z,88.97
2018-03-07T08:51:07.108Z,89.07
2018-03-07T08:53:34.726Z,89.37
2018-03-07T08:56:02.323Z,88.54
2018-03-07T08:58:29.990Z,88.68
2018-03-07T09:00:57.605Z,88.95
2018-03-07T09:03:26.758Z,89.45
2018-03-07T09:05:54.363Z,89.15
2018-03-07T09:08:22.008Z,88.71
2018-03-07T09:10:49.701Z,88.48
2018-03-07T09:13:17.343Z,89.24
2018-03-07T09:15:44.942Z,88.91
2018-03-07T09:18:12.557Z,88.80
2018-03-07T09:20:40.197Z,88.60
2018-03-07T09:23:07.990Z,88.68
2018-03-07T09:25:35.587Z,89.06
2018-03-07T09:28:03.291Z,89.03
2018-03-07T09:30:30.930Z,88.79
2018-03-07T09:32:58.612Z,88.91
2018-03-07T09:35:26.227Z,88.70
2018-03-07T09:37:53.837Z,88.49
2018-03-07T09:40:21.452Z,88.11
2018-03-07T09:42:49.157Z,89.12
2018-03-07T09:45:16.739Z,88.64
2018-03-07T09:47:44.532Z,88.79
2018-03-07T09:50:12.140Z,88.85
2018-03-07T09:52:39.758Z,88.94
2018-03-07T09:55:07.535Z,89.18
2018-03-07T09:57:35.198Z,89.29
2018-03-07T10:00:02.787Z,89.51
2018-03-07T10:02:30.442Z,89.93
2018-03-07T10:04:58.175Z,90.18
2018-03-07T10:07:25.814Z,91.09
2018-03-07T10:09:53.523Z,91.08
2018-03-07T10:12:21.119Z,91.36
2018-03-07T10:14:48.730Z,91.49
2018-03-07T10:17:16.338Z,92.15
2018-03-07T10:19:43.998Z,92.63
2018-03-07T10:22:11.629Z,94.40
2018-03-07T10:24:39.263Z,94.81
2018-03-07T10:27:06.847Z,94.87
2018-03-07T10:29:34.478Z,94.96
2018-03-07T10:32:02.073Z,95.06
2018-03-07T10:34:29.744Z,95.05
2018-03-07T10:36:57.378Z,94.93
2018-03-07T10:39:24.957Z,95.53
2018-03-07T10:41:52.743Z,96.05
2018-03-07T10:44:20.368Z,96.80
2018-03-07T10:46:47.958Z,97.39
2018-03-07T10:49:15.587Z,98.10
2018-03-07T10:51:43.202Z,98.47
2018-03-07T10:54:10.832Z,98.79
2018-03-07T10:56:38.462Z,98.73
2018-03-07T10:59:06.087Z,98.66
2018-03-07T11:01:33.680Z,98.83
2018-03-07T11:04:01.303Z,98.97
2018-03-07T11:06:28.919Z,99.18
2018-03-07T11:08:56.574Z,99.42
2018-03-07T11:11:24.175Z,97.60
2018-03-07T11:13:51.841Z,98.16
2018-03-07T11:16:19.395Z,98.25
2018-03-07T11:18:47.048Z,97.90
2018-03-07T11:21:14.655Z,97.33
2018-03-07T11:23:42.299Z,96.94
2018-03-07T11:26:09.968Z,97.33
2018-03-07T11:28:37.676Z,96.24
2018-03-07T11:31:05.266Z,95.15
2018-03-07T11:33:32.911Z,94.54
2018-03-07T11:36:00.531Z,95.02
2018-03-07T11:38:28.266Z,94.99
2018-03-07T11:40:55.862Z,93.85
2018-03-07T11:43:23.508Z,94.96
2018-03-07T11:45:51.111Z,94.05
2018-03-07T11:48:18.747Z,90.04
2018-03-07T11:50:46.339Z,91.02
2018-03-07T11:53:13.965Z,91.36
2018-03-07T11:55:41.572Z,90.72
2018-03-07T11:58:09.206Z,91.56
2018-03-07T12:00:36.797Z,91.06
2018-03-07T12:03:04.426Z,90.19
2018-03-07T12:05:32.026Z,90.64
2018-03-07T12:07:59.736Z,89.33
2018-03-07T12:10:27.346Z,89.40
2018-03-07T12:12:54.958Z,89.93
2018-03-07T12:15:22.649Z,89.67
2018-03-07T12:17:50.263Z,89.25
2018-03-07T12:20:17.880Z,89.71
2018-03-07T12:22:45.504Z,89.67
2018-03-07T12:25:13.098Z,90.61
2018-03-07T12:27:40.775Z,90.86
2018-03-07T12:30:08.370Z,90.95
2018-03-07T12:32:36.046Z,90.74
2018-03-07T12:35:03.698Z,90.51
2018-03-07T12:37:31.306Z,90.02
2018-03-07T12:39:58.914Z,89.50
2018-03-07T12:42:26.541Z,89.83
2018-03-07T12:44:54.138Z,89.13
2018-03-07T12:47:21.755Z,89.11
2018-03-07T12:49:49.352Z,88.41
2018-03-07T12:52:16.966Z,88.62
2018-03-07T12:54:44.586Z,87.49
2018-03-07T12:57:12.226Z,86.77
2018-03-07T12:59:39.827Z,86.08
2018-03-07T13:02:07.438Z,83.08
2018-03-07T13:04:35.038Z,82.14
2018-03-07T13:07:02.844Z,81.51
2018-03-07T13:09:30.427Z,81.61
2018-03-07T13:11:58.026Z,80.26
2018-03-07T13:14:25.734Z,80.05
2018-03-07T13:16:53.328Z,78.88
2018-03-07T13:19:20.912Z,78.81
2018-03-07T13:21:48.530Z,79.22
2018-03-07T13:24:16.110Z,78.88
2018-03-07T13:26:43.734Z,77.67
2018-03-07T13:29:11.330Z,77.88
2018-03-07T13:31:38.947Z,77.13
2018-03-07T13:34:06.617Z,76.58
2018-03-07T13:36:34.239Z,77.24
2018-03-07T13:39:01.844Z,77.51
2018-03-07T13:41:29.457Z,77.64
2018-03-07T13:43:57.050Z,77.29
2018-03-07T13:46:24.678Z,76.86
2018-03-07T13:48:52.358Z,76.75
2018-03-07T13:51:19.930Z,76.70
2018-03-07T13:53:47.566Z,76.10
2018-03-07T13:56:15.190Z,75.94
2018-03-07T13:58:42.810Z,76.10
2018-03-07T14:01:10.410Z,77.07
2018-03-07T14:03:38.018Z,77.00
2018-03-07T14:06:05.682Z,77.15
2018-03-07T14:08:33.362Z,76.67
2018-03-07T14:11:00.946Z,76.90
2018-03-07T14:13:28.570Z,77.09
2018-03-07T14:15:56.190Z,76.84
2018-03-07T14:18:23.810Z,77.18
2018-03-07T14:20:51.391Z,77.00
2018-03-07T14:23:19.010Z,77.00
2018-03-07T14:25:46.601Z,76.47
2018-03-07T14:28:14.319Z,76.90
2018-03-07T14:30:41.927Z,77.00
2018-03-07T14:33:09.526Z,76.79
2018-03-07T14:35:37.113Z,76.61
2018-03-07T14:38:04.755Z,76.52
2018-03-07T14:40:32.338Z,76.68
2018-03-07T14:42:59.966Z,75.76
2018-03-07T14:45:27.592Z,76.08
2018-03-07T14:47:55.222Z,76.22
2018-03-07T14:50:22.801Z,76.17
2018-03-07T14:52:50.435Z,76.16
2018-03-07T14:55:18.449Z,75.72
2018-03-07T14:57:46.105Z,76.15
2018-03-07T15:00:13.733Z,76.33
2018-03-07T15:02:41.707Z,76.93
2018-03-07T15:05:09.327Z,77.46
2018-03-07T15:07:36.975Z,76.80
2018-03-07T15:10:04.605Z,76.79
2018-03-07T15:12:32.244Z,76.86
2018-03-07T15:14:59.871Z,77.66
2018-03-07T15:17:28.098Z,77.86
2018-03-07T15:19:56.438Z,77.92
2018-03-07T15:22:24.148Z,77.75
2018-03-07T15:24:52.582Z,77.13
2018-03-07T15:27:20.225Z,76.95
2018-03-07T15:29:47.826Z,77.09
2018-03-07T15:32:15.442Z,77.49
2018-03-07T15:34:43.211Z,77.40
2018-03-07T15:37:10.864Z,77.33
2018-03-07T15:39:38.489Z,76.63
2018-03-07T15:42:06.166Z,77.05
2018-03-07T15:44:33.797Z,76.43
2018-03-07T15:47:01.473Z,75.47
2018-03-07T15:49:29.087Z,75.48
2018-03-07T15:51:56.707Z,76.02
2018-03-07T15:54:24.321Z,75.93
2018-03-07T15:56:51.958Z,76.05
2018-03-07T15:59:19.573Z,76.47
2018-03-07T16:01:47.200Z,76.37
2018-03-07T16:04:14.839Z,76.00
2018-03-07T16:06:42.487Z,75.96
2018-03-07T16:09:10.200Z,75.64
2018-03-07T16:11:37.870Z,75.61
2018-03-07T16:14:06.100Z,75.46
2018-03-07T16:16:33.732Z,75.69
2018-03-07T16:19:01.339Z,74.44
2018-03-07T16:21:29.771Z,74.03
2018-03-07T16:23:57.378Z,73.96
2018-03-07T16:26:25.575Z,74.16
2018-03-07T16:28:53.204Z,74.01
2018-03-07T16:31:20.846Z,74.43
2018-03-07T16:33:48.535Z,74.65
2018-03-07T16:36:16.190Z,74.97
2018-03-07T16:38:43.787Z,74.25
2018-03-07T16:41:11.376Z,74.35
2018-03-07T16:43:38.989Z,74.56
2018-03-07T16:46:06.630Z,74.50
2018-03-07T16:48:34.296Z,74.49
2018-03-07T16:51:01.916Z,74.46
2018-03-07T16:53:29.568Z,74.04
2018-03-07T16:55:59.206Z,74.28
2018-03-07T16:58:26.831Z,74.34
2018-03-07T17:00:54.468Z,74.54
2018-03-07T17:03:22.098Z,75.07
2018-03-07T17:05:49.697Z,75.30
2018-03-07T17:08:17.346Z,75.28
2018-03-07T17:10:44.972Z,74.89
2018-03-07T17:13:12.670Z,74.72
2018-03-07T17:15:40.301Z,75.13
2018-03-07T17:18:07.899Z,75.94
2018-03-07T17:20:35.521Z,76.36
2018-03-07T17:23:03.500Z,77.33
2018-03-07T17:25:31.138Z,78.00
2018-03-07T17:27:58.767Z,78.09
2018-03-07T17:30:27.337Z,78.76
2018-03-07T17:32:54.947Z,79.48
2018-03-07T17:35:22.565Z,80.32
2018-03-07T17:37:50.190Z,80.38
2018-03-07T17:40:17.890Z,80.73
2018-03-07T17:42:45.520Z,81.60
2018-03-07T17:45:13.159Z,82.47
2018-03-07T17:47:40.944Z,82.87
2018-03-07T17:50:08.639Z,83.40
2018-03-07T17:52:37.116Z,84.48
2018-03-07T17:55:04.750Z,84.62
2018-03-07T17:57:32.342Z,85.48
2018-03-07T17:59:59.963Z,86.38
2018-03-07T18:02:27.551Z,87.67
2018-03-07T18:04:55.179Z,88.81
2018-03-07T18:07:22.772Z,89.70
2018-03-07T18:09:50.407Z,89.62
2018-03-07T18:12:18.033Z,90.61
2018-03-07T18:14:45.622Z,91.04
2018-03-07T18:17:13.234Z,90.54
2018-03-07T18:19:40.844Z,89.90
2018-03-07T18:22:08.466Z,89.13
2018-03-07T18:24:36.103Z,89.17
2018-03-07T18:27:03.690Z,89.02
2018-03-07T18:29:31.285Z,89.94
2018-03-07T18:31:58.898Z,89.94
2018-03-07T18:34:26.525Z,90.28
2018-03-07T18:36:54.181Z,90.55
2018-03-07T18:39:21.794Z,90.75
2018-03-07T18:41:49.410Z,88.81
2018-03-07T18:44:17.036Z,88.62
2018-03-07T18:46:44.690Z,88.80
2018-03-07T18:49:12.313Z,88.73
2018-03-07T18:51:39.934Z,87.80
2018-03-07T18:54:07.532Z,88.66
2018-03-07T18:56:35.163Z,89.07
2018-03-07T18:59:02.818Z,88.98
2018-03-07T19:01:30.523Z,89.44
2018-03-07T19:03:58.143Z,90.11
2018-03-07T19:06:25.767Z,90.54
2018-03-07T19:08:53.364Z,90.75
2018-03-07T19:11:21.002Z,91.29
2018-03-07T19:13:49.329Z,92.17
2018-03-07T19:16:16.985Z,92.18
2018-03-07T19:18:44.590Z,92.42
2018-03-07T19:21:12.298Z,93.11
2018-03-07T19:23:39.923Z,93.47
2018-03-07T19:26:07.551Z,93.18
2018-03-07T19:28:35.154Z,93.06
2018-03-07T19:31:02.803Z,92.77
2018-03-07T19:33:30.532Z,93.46
2018-03-07T19:35:58.191Z,94.38
2018-03-07T19:38:25.820Z,94.43
2018-03-07T19:40:53.453Z,95.36
2018-03-07T19:43:21.051Z,95.86
2018-03-07T19:45:48.675Z,96.24
2018-03-07T19:48:16.334Z,96.73
2018-03-07T19:50:43.994Z,97.19
2018-03-07T19:53:11.612Z,97.61
2018-03-07T19:55:39.211Z,97.83
2018-03-07T19:58:06.871Z,98.12
2018-03-07T20:00:34.508Z,98.34
2018-03-07T20:03:02.162Z,98.55
2018-03-07T20:05:29.768Z,98.59
2018-03-07T20:07:57.380Z,98.77
2018-03-07T20:10:25.011Z,98.89
2018-03-07T20:12:52.887Z,98.84
2018-03-07T20:15:20.510Z,98.58
2018-03-07T20:17:48.143Z,98.26
2018-03-07T20:20:15.819Z,98.03
2018-03-07T20:22:43.433Z,98.32
2018-03-07T20:25:11.099Z,98.06
2018-03-07T20:27:38.740Z,98.12
2018-03-07T20:30:06.354Z,98.03
2018-03-07T20:32:33.942Z,98.24
2018-03-07T20:37:35.583Z,98.28
2018-03-07T20:40:03.215Z,98.60
2018-03-07T20:42:30.831Z,98.41
2018-03-07T20:44:58.461Z,98.14
2018-03-07T20:47:26.110Z,97.88
2018-03-07T20:49:53.774Z,97.24
2018-03-07T20:52:21.396Z,96.83
2018-03-07T20:54:49.067Z,96.61
2018-03-07T20:57:16.718Z,96.59
2018-03-07T20:59:44.307Z,95.67
2018-03-07T21:02:11.955Z,94.80
2018-03-07T21:04:39.522Z,94.27
2018-03-07T21:07:07.182Z,94.18
2018-03-07T21:09:34.834Z,94.08
2018-03-07T21:12:02.476Z,94.47
2018-03-07T21:14:30.264Z,94.81
2018-03-07T21:16:57.914Z,94.50
2018-03-07T21:19:25.523Z,91.92
2018-03-07T21:21:53.194Z,92.55
2018-03-07T21:24:20.903Z,92.25
2018-03-07T21:26:48.526Z,92.75
2018-03-07T21:29:16.142Z,93.43
2018-03-07T21:31:43.755Z,94.38
2018-03-07T21:34:12.068Z,94.52
2018-03-07T21:36:39.732Z,95.53
2018-03-07T21:39:07.390Z,96.15
2018-03-07T21:41:35.156Z,96.31
2018-03-07T21:44:02.759Z,96.08
2018-03-07T21:46:30.380Z,96.09
2018-03-07T21:48:57.969Z,96.67
2018-03-07T21:51:25.594Z,97.01
2018-03-07T21:53:53.198Z,97.94
2018-03-07T21:56:20.816Z,98.49
2018-03-07T21:58:48.418Z,98.84
2018-03-07T22:01:16.044Z,99.15
2018-03-07T22:03:43.685Z,99.25
2018-03-07T22:06:11.293Z,99.40
2018-03-07T22:08:39.106Z,99.52
2018-03-07T22:11:06.745Z,99.71
2018-03-07T22:13:34.376Z,99.59
2018-03-07T22:16:02.013Z,99.49
2018-03-07T22:18:30.282Z,98.91
2018-03-07T22:20:57.905Z,98.51
2018-03-07T22:23:25.650Z,98.28
2018-03-07T22:25:53.310Z,97.86
2018-03-07T22:28:20.954Z,97.82
2018-03-07T22:30:48.587Z,97.80
2018-03-07T22:33:16.171Z,97.96
2018-03-07T22:35:43.794Z,97.66
2018-03-07T22:38:11.391Z,98.14
2018-03-07T22:40:39.030Z,98.11
2018-03-07T22:43:06.663Z,97.91
2018-03-07T22:45:34.282Z,98.07
2018-03-07T22:48:01.889Z,98.34
2018-03-07T22:50:29.499Z,98.48
2018-03-07T22:52:57.094Z,98.63
2018-03-07T22:55:24.755Z,98.52
2018-03-07T22:57:52.357Z,98.37
2018-03-07T23:00:25.423Z,98.58
2018-03-07T23:02:53.020Z,98.92
2018-03-07T23:05:20.675Z,99.55
2018-03-07T23:07:48.330Z,99.53
2018-03-07T23:10:16.796Z,99.76
2018-03-07T23:12:44.490Z,99.62
2018-03-07T23:15:12.130Z,99.68
2018-03-07T23:17:39.786Z,99.93
2018-03-07T23:20:07.377Z,100.00
2018-03-07T23:22:35.018Z,100.00
2018-03-07T23:25:02.627Z,100.00
2018-03-07T23:27:30.282Z,100.00
2018-03-07T23:29:57.958Z,100.00
2018-03-07T23:32:25.562Z,100.00
2018-03-07T23:34:53.250Z,100.00
2018-03-07T23:37:20.871Z,100.00
2018-03-07T23:39:48.550Z,100.00
2018-03-07T23:42:16.206Z,99.75
2018-03-07T23:44:43.809Z,99.49
2018-03-07T23:47:11.438Z,99.29
2018-03-07T23:49:39.038Z,98.87
2018-03-07T23:52:06.723Z,98.72
2018-03-07T23:54:34.314Z,98.36
2018-03-07T23:57:01.956Z,98.12
2018-03-07T23:59:29.592Z,97.61
